createdAt,value
2019-03-28T00:00:57.234Z,8.30
2019-03-28T00:03:25.674Z,8.40
2019-03-28T00:05:54.125Z,8.40
2019-03-28T00:08:22.573Z,8.40
2019-03-28T00:10:51.106Z,8.30
2019-03-28T00:13:19.551Z,8.30
2019-03-28T00:15:49.398Z,8.30
2019-03-28T00:18:17.875Z,8.30
2019-03-28T00:20:46.358Z,8.30
2019-03-28T00:23:16.479Z,8.20
2019-03-28T00:25:44.921Z,8.10
2019-03-28T00:28:13.423Z,8.00
2019-03-28T00:30:42.324Z,8.10
2019-03-28T00:33:10.763Z,8.20
2019-03-28T00:35:39.210Z,8.20
2019-03-28T00:38:07.665Z,8.20
2019-03-28T00:40:36.102Z,8.20
2019-03-28T00:43:04.545Z,8.20
2019-03-28T00:45:33.171Z,8.20
2019-03-28T00:48:01.609Z,8.20
2019-03-28T00:50:32.916Z,8.10
2019-03-28T00:53:00.240Z,8.00
2019-03-28T00:55:28.672Z,8.00
2019-03-28T00:57:57.109Z,8.10
2019-03-28T01:00:25.872Z,8.10
2019-03-28T01:02:54.335Z,8.00
2019-03-28T01:05:22.761Z,8.00
2019-03-28T01:07:51.333Z,8.20
2019-03-28T01:10:19.761Z,8.30
2019-03-28T01:12:48.217Z,8.10
2019-03-28T01:15:16.741Z,8.10
2019-03-28T01:17:45.460Z,8.00
2019-03-28T01:20:14.306Z,8.00
2019-03-28T01:22:42.847Z,8.10
2019-03-28T01:25:11.921Z,8.00
2019-03-28T01:27:40.361Z,8.00
2019-03-28T01:30:09.553Z,8.20
2019-03-28T01:32:37.988Z,8.10
2019-03-28T01:35:06.653Z,8.10
2019-03-28T01:37:35.089Z,8.20
2019-03-28T01:40:04.337Z,8.10
2019-03-28T01:42:32.789Z,8.10
2019-03-28T01:45:01.223Z,8.10
2019-03-28T01:47:29.676Z,8.10
2019-03-28T01:49:58.312Z,8.00
2019-03-28T01:52:26.804Z,8.00
2019-03-28T01:54:55.313Z,7.90
2019-03-28T01:57:24.106Z,8.00
2019-03-28T01:59:52.549Z,7.90
2019-03-28T02:02:21.527Z,7.90
2019-03-28T02:04:49.961Z,7.90
2019-03-28T02:07:18.440Z,7.80
2019-03-28T02:09:46.914Z,7.90
2019-03-28T02:12:15.342Z,7.90
2019-03-28T02:14:43.791Z,7.80
2019-03-28T02:17:12.312Z,7.80
2019-03-28T02:19:41.055Z,7.90
2019-03-28T02:22:09.497Z,7.80
2019-03-28T02:24:37.963Z,7.90
2019-03-28T02:27:06.580Z,8.00
2019-03-28T02:29:35.049Z,8.00
2019-03-28T02:32:03.531Z,8.00
2019-03-28T02:34:31.960Z,7.90
2019-03-28T02:37:00.417Z,7.90
2019-03-28T02:39:28.836Z,7.90
2019-03-28T02:41:57.273Z,7.90
2019-03-28T02:44:25.704Z,8.00
2019-03-28T02:46:54.129Z,7.90
2019-03-28T02:49:22.644Z,8.00
2019-03-28T02:51:51.078Z,7.90
2019-03-28T02:54:19.523Z,7.90
2019-03-28T02:56:47.961Z,7.90
2019-03-28T02:59:16.414Z,7.90
2019-03-28T03:01:45.032Z,7.90
2019-03-28T03:04:13.560Z,7.80
2019-03-28T03:06:42.006Z,7.80
2019-03-28T03:09:10.433Z,7.90
2019-03-28T03:11:42.611Z,8.00
2019-03-28T03:14:09.050Z,7.90
2019-03-28T03:16:37.479Z,7.90
2019-03-28T03:19:05.916Z,7.90
2019-03-28T03:21:35.913Z,7.90
2019-03-28T03:24:04.956Z,7.90
2019-03-28T03:26:33.819Z,8.00
2019-03-28T03:29:02.242Z,7.90
2019-03-28T03:31:30.683Z,8.10
2019-03-28T03:33:59.114Z,8.00
2019-03-28T03:36:29.875Z,8.00
2019-03-28T03:38:58.336Z,7.90
2019-03-28T03:41:26.793Z,7.90
2019-03-28T03:43:55.221Z,7.90
2019-03-28T03:46:24.908Z,8.10
2019-03-28T03:48:54.798Z,8.00
2019-03-28T03:51:23.259Z,8.10
2019-03-28T03:53:51.674Z,8.10
2019-03-28T03:56:20.121Z,8.20
2019-03-28T03:58:48.558Z,8.10
2019-03-28T04:01:17.020Z,8.00
2019-03-28T04:03:45.515Z,8.00
2019-03-28T04:06:14.058Z,8.00
2019-03-28T04:08:42.491Z,8.00
2019-03-28T04:11:10.930Z,8.20
2019-03-28T04:13:39.517Z,8.10
2019-03-28T04:16:07.979Z,8.10
2019-03-28T04:18:36.416Z,8.00
2019-03-28T04:21:04.929Z,8.00
2019-03-28T04:23:33.378Z,8.00
2019-03-28T04:26:01.894Z,7.90
2019-03-28T04:28:32.800Z,7.90
2019-03-28T04:31:01.322Z,8.00
2019-03-28T04:33:29.898Z,7.90
2019-03-28T04:35:58.337Z,8.10
2019-03-28T04:38:26.781Z,8.10
2019-03-28T04:40:55.231Z,8.00
2019-03-28T04:43:23.658Z,8.00
2019-03-28T04:45:52.076Z,8.00
2019-03-28T04:48:20.510Z,7.90
2019-03-28T04:50:49.116Z,7.90
2019-03-28T04:53:17.557Z,8.00
2019-03-28T04:55:45.992Z,8.00
2019-03-28T04:58:14.608Z,8.00
2019-03-28T05:00:43.049Z,7.90
2019-03-28T05:03:11.505Z,7.90
2019-03-28T05:05:39.938Z,8.10
2019-03-28T05:08:08.427Z,8.00
2019-03-28T05:10:37.400Z,8.00
2019-03-28T05:13:05.836Z,8.00
2019-03-28T05:15:34.271Z,8.00
2019-03-28T05:18:02.696Z,8.00
2019-03-28T05:20:31.134Z,8.10
2019-03-28T05:22:59.603Z,8.00
2019-03-28T05:25:28.093Z,7.90
2019-03-28T05:27:59.330Z,8.00
2019-03-28T05:30:27.996Z,8.00
2019-03-28T05:32:56.456Z,8.10
2019-03-28T05:35:24.883Z,8.00
2019-03-28T05:37:53.324Z,8.00
2019-03-28T05:40:22.954Z,8.10
2019-03-28T05:42:51.670Z,8.10
2019-03-28T05:45:20.176Z,8.20
2019-03-28T05:47:48.638Z,8.00
2019-03-28T05:50:17.074Z,8.00
2019-03-28T05:52:45.841Z,8.10
2019-03-28T05:55:14.289Z,8.20
2019-03-28T05:57:42.715Z,8.10
2019-03-28T06:00:11.693Z,8.20
2019-03-28T06:02:40.361Z,8.30
2019-03-28T06:05:08.805Z,8.30
2019-03-28T06:07:38.753Z,8.20
2019-03-28T06:10:09.110Z,8.10
2019-03-28T06:12:37.755Z,8.00
2019-03-28T06:15:08.312Z,8.00
2019-03-28T06:17:36.831Z,8.10
2019-03-28T06:20:08.466Z,8.30
2019-03-28T06:22:36.905Z,8.90
2019-03-28T06:25:06.091Z,9.00
2019-03-28T06:27:34.817Z,9.20
2019-03-28T06:30:04.125Z,8.70
2019-03-28T06:32:42.265Z,8.90
2019-03-28T06:35:02.708Z,9.10
2019-03-28T06:37:31.169Z,9.20
2019-03-28T06:40:00.495Z,9.00
2019-03-28T06:42:28.999Z,9.40
2019-03-28T06:44:57.464Z,8.90
2019-03-28T06:47:25.890Z,8.30
2019-03-28T06:49:54.328Z,8.10
2019-03-28T06:52:22.758Z,8.10
2019-03-28T06:54:51.251Z,8.10
2019-03-28T06:57:19.764Z,8.10
2019-03-28T06:59:48.277Z,8.00
2019-03-28T07:02:17.335Z,7.80
2019-03-28T07:04:46.008Z,7.70
2019-03-28T07:07:14.430Z,7.70
2019-03-28T07:09:42.896Z,7.70
2019-03-28T07:12:11.317Z,7.70
2019-03-28T07:14:39.745Z,7.80
2019-03-28T07:17:08.206Z,7.80
2019-03-28T07:19:36.627Z,7.80
2019-03-28T07:22:05.061Z,7.90
2019-03-28T07:24:33.480Z,7.90
2019-03-28T07:27:01.939Z,7.80
2019-03-28T07:29:30.371Z,7.90
2019-03-28T07:31:58.877Z,8.00
2019-03-28T07:34:27.313Z,8.00
2019-03-28T07:36:55.765Z,8.10
2019-03-28T07:39:24.187Z,8.10
2019-03-28T07:41:52.624Z,8.00
2019-03-28T07:44:21.120Z,8.00
2019-03-28T07:46:49.599Z,8.00
2019-03-28T07:49:18.110Z,8.10
2019-03-28T07:51:46.737Z,8.10
2019-03-28T07:54:15.169Z,8.20
2019-03-28T07:56:43.609Z,8.30
2019-03-28T07:59:12.043Z,8.30
2019-03-28T08:01:40.481Z,8.40
2019-03-28T08:04:12.112Z,8.40
2019-03-28T08:06:49.046Z,8.30
2019-03-28T08:09:10.306Z,8.30
2019-03-28T08:11:39.002Z,8.20
2019-03-28T08:14:07.631Z,8.30
2019-03-28T08:16:36.069Z,8.30
2019-03-28T08:19:07.806Z,8.30
2019-03-28T08:21:34.839Z,8.30
2019-03-28T08:24:03.306Z,8.40
2019-03-28T08:26:31.729Z,8.50
2019-03-28T08:29:00.178Z,8.40
2019-03-28T08:31:28.602Z,8.40
2019-03-28T08:33:57.042Z,8.40
2019-03-28T08:36:26.705Z,8.30
2019-03-28T08:38:55.820Z,8.40
2019-03-28T08:41:24.305Z,8.50
2019-03-28T08:43:52.763Z,8.60
2019-03-28T08:46:21.193Z,8.60
2019-03-28T08:48:49.639Z,8.60
2019-03-28T08:51:18.136Z,8.60
2019-03-28T08:53:46.581Z,8.70
2019-03-28T08:56:15.006Z,8.70
2019-03-28T08:58:43.461Z,8.60
2019-03-28T09:01:11.896Z,8.80
2019-03-28T09:03:40.349Z,8.90
2019-03-28T09:06:08.780Z,8.90
2019-03-28T09:08:37.243Z,8.90
2019-03-28T09:11:05.669Z,8.90
2019-03-28T09:13:35.648Z,9.00
2019-03-28T09:16:04.166Z,9.00
2019-03-28T09:18:32.920Z,9.20
2019-03-28T09:21:01.421Z,9.20
2019-03-28T09:23:29.864Z,9.20
2019-03-28T09:25:58.287Z,9.20
2019-03-28T09:28:26.733Z,9.30
2019-03-28T09:30:55.346Z,9.30
2019-03-28T09:33:24.168Z,9.30
2019-03-28T09:35:52.740Z,9.30
2019-03-28T09:38:21.417Z,9.30
2019-03-28T09:40:49.862Z,9.40
2019-03-28T09:43:18.376Z,9.40
2019-03-28T09:45:46.841Z,9.40
2019-03-28T09:48:15.293Z,9.50
2019-03-28T09:50:43.781Z,9.50
2019-03-28T09:53:13.925Z,9.60
2019-03-28T09:55:42.352Z,9.50
2019-03-28T09:58:10.964Z,9.60
2019-03-28T10:00:39.389Z,9.60
2019-03-28T10:03:07.963Z,9.70
2019-03-28T10:05:38.047Z,9.60
2019-03-28T10:08:06.558Z,9.40
2019-03-28T10:10:35.030Z,9.40
2019-03-28T10:13:03.628Z,9.50
2019-03-28T10:15:36.803Z,9.50
2019-03-28T10:18:04.468Z,9.60
2019-03-28T10:20:32.898Z,9.50
2019-03-28T10:23:01.340Z,9.60
2019-03-28T10:25:29.774Z,9.80
2019-03-28T10:27:58.991Z,9.80
2019-03-28T10:30:44.393Z,10.00
2019-03-28T10:33:12.845Z,10.10
2019-03-28T10:35:41.296Z,9.90
2019-03-28T10:38:09.970Z,10.00
2019-03-28T10:40:38.511Z,10.10
2019-03-28T10:43:07.208Z,10.30
2019-03-28T10:45:35.656Z,10.30
2019-03-28T10:48:04.821Z,10.20
2019-03-28T10:50:40.819Z,10.40
2019-03-28T10:53:03.570Z,10.60
2019-03-28T10:55:32.025Z,10.70
2019-03-28T10:58:00.454Z,10.60
2019-03-28T11:00:28.900Z,10.60
2019-03-28T11:02:57.624Z,10.70
2019-03-28T11:05:26.119Z,10.90
2019-03-28T11:07:54.563Z,11.00
2019-03-28T11:10:22.994Z,11.00
2019-03-28T11:12:51.431Z,10.90
2019-03-28T11:15:19.873Z,10.90
2019-03-28T11:17:48.383Z,11.00
2019-03-28T11:20:16.902Z,11.00
2019-03-28T11:22:45.510Z,10.90
2019-03-28T11:25:14.613Z,10.90
2019-03-28T11:27:43.053Z,11.00
2019-03-28T11:30:12.839Z,11.00
2019-03-28T11:32:41.262Z,11.00
2019-03-28T11:35:09.978Z,11.00
2019-03-28T11:37:38.489Z,11.10
2019-03-28T11:40:09.247Z,11.00
2019-03-28T11:42:38.064Z,11.00
2019-03-28T11:45:09.341Z,11.10
2019-03-28T11:47:37.656Z,11.00
2019-03-28T11:50:10.300Z,10.90
2019-03-28T11:52:38.728Z,10.90
2019-03-28T11:55:07.709Z,10.90
2019-03-28T11:57:37.297Z,10.90
2019-03-28T12:00:12.033Z,10.80
2019-03-28T12:02:40.476Z,10.90
2019-03-28T12:05:09.820Z,10.90
2019-03-28T12:07:38.253Z,11.00
2019-03-28T12:10:09.770Z,11.00
2019-03-28T12:12:38.212Z,10.90
2019-03-28T12:15:08.965Z,10.90
2019-03-28T12:17:37.401Z,10.90
2019-03-28T12:20:07.801Z,10.90
2019-03-28T12:22:36.416Z,10.90
2019-03-28T12:25:06.674Z,10.90
2019-03-28T12:27:35.098Z,10.90
2019-03-28T12:30:05.577Z,10.90
2019-03-28T12:32:34.098Z,10.90
2019-03-28T12:35:02.539Z,10.80
2019-03-28T12:37:30.986Z,10.90
2019-03-28T12:40:00.059Z,10.90
2019-03-28T12:42:28.957Z,11.00
2019-03-28T12:44:58.299Z,10.90
2019-03-28T12:47:41.299Z,10.90
2019-03-28T12:49:57.670Z,10.90
2019-03-28T12:52:26.112Z,10.90
2019-03-28T12:54:54.747Z,10.80
2019-03-28T12:57:23.551Z,10.80
2019-03-28T12:59:53.604Z,10.70
2019-03-28T13:02:30.033Z,10.80
2019-03-28T13:04:52.360Z,10.80
2019-03-28T13:07:21.005Z,10.80
2019-03-28T13:09:49.766Z,10.70
2019-03-28T13:12:18.257Z,10.60
2019-03-28T13:14:47.726Z,10.70
2019-03-28T13:17:16.567Z,10.80
2019-03-28T13:19:45.117Z,10.70
2019-03-28T13:22:13.569Z,10.80
2019-03-28T13:24:41.984Z,10.90
2019-03-28T13:27:10.421Z,10.90
2019-03-28T13:29:38.852Z,11.00
2019-03-28T13:32:07.478Z,11.00
2019-03-28T13:34:35.942Z,11.00
2019-03-28T13:37:04.383Z,11.10
2019-03-28T13:39:33.769Z,11.10
2019-03-28T13:42:02.254Z,11.10
2019-03-28T13:44:30.682Z,11.10
2019-03-28T13:46:59.127Z,11.00
2019-03-28T13:49:27.550Z,11.00
2019-03-28T13:51:55.984Z,11.00
2019-03-28T13:54:24.421Z,11.00
2019-03-28T13:56:52.872Z,11.00
2019-03-28T13:59:21.296Z,11.00
2019-03-28T14:01:49.732Z,11.00
2019-03-28T14:04:18.172Z,11.20
2019-03-28T14:06:46.610Z,11.20
2019-03-28T14:09:15.056Z,11.10
2019-03-28T14:11:43.502Z,11.00
2019-03-28T14:14:11.969Z,11.00
2019-03-28T14:16:40.458Z,10.90
2019-03-28T14:19:08.925Z,10.80
2019-03-28T14:21:37.352Z,10.80
2019-03-28T14:24:05.861Z,10.80
2019-03-28T14:26:37.420Z,10.80
2019-03-28T14:29:06.899Z,10.90
2019-03-28T14:31:34.644Z,10.80
2019-03-28T14:34:03.130Z,10.80
2019-03-28T14:36:32.852Z,10.90
2019-03-28T14:39:01.511Z,10.90
2019-03-28T14:41:29.947Z,10.90
2019-03-28T14:43:58.386Z,10.90
2019-03-28T14:46:26.820Z,10.90
2019-03-28T14:48:55.282Z,10.90
2019-03-28T14:51:23.765Z,10.90
2019-03-28T14:53:52.201Z,11.00
2019-03-28T14:56:21.070Z,11.00
2019-03-28T14:58:50.662Z,11.10
2019-03-28T15:01:20.632Z,11.00
2019-03-28T15:03:49.071Z,11.00
2019-03-28T15:06:17.506Z,11.00
2019-03-28T15:08:46.024Z,11.10
2019-03-28T15:11:15.835Z,11.20
2019-03-28T15:13:44.261Z,11.20
2019-03-28T15:16:12.692Z,11.20
2019-03-28T15:18:41.133Z,11.20
2019-03-28T15:21:09.565Z,11.10
2019-03-28T15:23:38.031Z,11.10
2019-03-28T15:26:06.493Z,11.20
2019-03-28T15:28:34.949Z,11.20
2019-03-28T15:31:03.417Z,11.20
2019-03-28T15:33:39.213Z,11.10
2019-03-28T15:36:02.265Z,11.10
2019-03-28T15:38:31.495Z,11.00
2019-03-28T15:41:00.105Z,11.00
2019-03-28T15:43:28.546Z,11.20
2019-03-28T15:45:56.995Z,11.10
2019-03-28T15:48:25.438Z,11.10
2019-03-28T15:50:53.933Z,11.00
2019-03-28T15:53:22.440Z,11.00
2019-03-28T15:55:50.875Z,10.90
2019-03-28T15:58:23.459Z,10.90
2019-03-28T16:00:49.487Z,11.00
2019-03-28T16:03:17.988Z,11.00
2019-03-28T16:05:57.686Z,11.10
2019-03-28T16:08:16.707Z,11.10
2019-03-28T16:10:45.151Z,11.10
2019-03-28T16:13:13.609Z,11.20
2019-03-28T16:15:42.070Z,11.20
2019-03-28T16:18:10.496Z,11.00
2019-03-28T16:20:39.066Z,11.10
2019-03-28T16:23:07.504Z,11.10
2019-03-28T16:25:35.997Z,11.10
2019-03-28T16:28:04.432Z,11.20
2019-03-28T16:30:38.160Z,11.10
2019-03-28T16:33:07.132Z,11.10
2019-03-28T16:35:35.577Z,11.10
2019-03-28T16:38:04.286Z,11.10
2019-03-28T16:40:32.745Z,11.10
2019-03-28T16:43:01.178Z,11.10
2019-03-28T16:45:29.615Z,11.10
2019-03-28T16:47:58.412Z,11.10
2019-03-28T16:50:27.118Z,11.10
2019-03-28T16:52:55.632Z,11.10
2019-03-28T16:55:26.452Z,11.00
2019-03-28T16:57:54.214Z,11.00
2019-03-28T17:00:25.764Z,11.00
2019-03-28T17:02:54.192Z,11.00
2019-03-28T17:05:22.631Z,11.10
2019-03-28T17:07:51.703Z,11.00
2019-03-28T17:10:35.725Z,11.00
2019-03-28T17:13:04.214Z,11.10
2019-03-28T17:15:32.645Z,11.00
2019-03-28T17:18:01.248Z,11.00
2019-03-28T17:20:29.747Z,11.00
2019-03-28T17:22:58.247Z,11.30
2019-03-28T17:25:27.550Z,11.50
2019-03-28T17:27:55.989Z,11.70
2019-03-28T17:30:24.420Z,11.80
2019-03-28T17:32:52.856Z,12.30
2019-03-28T17:35:21.284Z,12.10
2019-03-28T17:37:49.732Z,11.90
2019-03-28T17:40:18.231Z,11.80
2019-03-28T17:42:47.999Z,11.80
2019-03-28T17:45:16.854Z,11.60
2019-03-28T17:47:45.381Z,11.30
2019-03-28T17:50:15.440Z,11.00
2019-03-28T17:52:43.889Z,10.70
2019-03-28T17:55:12.761Z,10.70
2019-03-28T17:57:42.947Z,10.70
2019-03-28T18:00:12.980Z,10.60
2019-03-28T18:02:41.611Z,10.60
2019-03-28T18:05:12.874Z,10.50
2019-03-28T18:07:40.773Z,10.60
2019-03-28T18:10:09.938Z,10.60
2019-03-28T18:12:39.041Z,10.60
2019-03-28T18:15:08.464Z,10.50
2019-03-28T18:17:36.914Z,10.60
2019-03-28T18:20:07.349Z,10.60
2019-03-28T18:22:35.858Z,10.50
2019-03-28T18:25:07.795Z,10.50
2019-03-28T18:27:37.286Z,10.50
2019-03-28T18:30:07.223Z,10.50
2019-03-28T18:32:39.003Z,10.60
2019-03-28T18:35:08.271Z,10.50
2019-03-28T18:37:36.984Z,10.50
2019-03-28T18:40:08.543Z,10.50
2019-03-28T18:42:37.147Z,10.50
2019-03-28T18:45:08.906Z,10.50
2019-03-28T18:47:37.329Z,10.50
2019-03-28T18:50:08.114Z,10.50
2019-03-28T18:52:37.902Z,10.50
2019-03-28T18:55:07.389Z,10.50
2019-03-28T18:57:35.830Z,10.50
2019-03-28T19:00:07.186Z,10.60
2019-03-28T19:02:37.631Z,10.60
2019-03-28T19:05:19.076Z,10.50
2019-03-28T19:07:38.147Z,10.50
2019-03-28T19:10:07.844Z,10.50
2019-03-28T19:12:36.323Z,10.50
2019-03-28T19:15:07.039Z,10.50
2019-03-28T19:17:35.950Z,10.50
2019-03-28T19:20:09.853Z,10.50
2019-03-28T19:22:38.612Z,10.50
2019-03-28T19:25:08.903Z,10.50
2019-03-28T19:27:38.096Z,10.50
2019-03-28T19:30:07.998Z,10.50
2019-03-28T19:32:36.508Z,10.50
2019-03-28T19:35:07.536Z,10.40
2019-03-28T19:37:39.945Z,10.50
2019-03-28T19:40:10.290Z,10.50
2019-03-28T19:42:40.641Z,10.40
2019-03-28T19:45:10.222Z,10.30
2019-03-28T19:47:38.657Z,10.30
2019-03-28T19:50:08.265Z,10.20
2019-03-28T19:52:38.278Z,10.30
2019-03-28T19:55:07.513Z,10.60
2019-03-28T19:57:36.182Z,10.70
2019-03-28T20:00:06.777Z,10.70
2019-03-28T20:02:36.081Z,10.80
2019-03-28T20:05:07.161Z,10.80
2019-03-28T20:07:35.585Z,10.90
2019-03-28T20:10:15.738Z,10.80
2019-03-28T20:12:36.196Z,10.50
2019-03-28T20:15:08.080Z,10.30
2019-03-28T20:17:37.005Z,10.30
2019-03-28T20:20:06.577Z,10.20
2019-03-28T20:22:35.030Z,10.20
2019-03-28T20:25:04.893Z,10.30
2019-03-28T20:27:33.631Z,10.30
2019-03-28T20:30:02.183Z,10.30
2019-03-28T20:32:30.673Z,10.20
2019-03-28T20:34:59.123Z,10.30
2019-03-28T20:37:27.607Z,10.20
2019-03-28T20:39:56.087Z,10.20
2019-03-28T20:42:24.574Z,10.20
2019-03-28T20:44:53.034Z,10.20
2019-03-28T20:47:21.501Z,10.20
2019-03-28T20:49:49.932Z,10.20
2019-03-28T20:52:19.155Z,10.20
2019-03-28T20:54:48.032Z,10.20
2019-03-28T20:57:17.908Z,10.20
2019-03-28T20:59:47.029Z,10.20
2019-03-28T21:02:16.514Z,10.10
2019-03-28T21:04:44.958Z,10.10
2019-03-28T21:07:15.354Z,10.10
2019-03-28T21:09:43.782Z,10.10
2019-03-28T21:12:12.225Z,10.10
2019-03-28T21:14:40.716Z,10.10
2019-03-28T21:17:09.174Z,10.10
2019-03-28T21:19:37.588Z,10.10
2019-03-28T21:22:07.323Z,10.20
2019-03-28T21:24:37.010Z,10.20
2019-03-28T21:27:05.462Z,10.30
2019-03-28T21:29:34.136Z,10.20
2019-03-28T21:32:02.828Z,10.20
2019-03-28T21:34:31.328Z,10.20
2019-03-28T21:36:59.753Z,10.10
2019-03-28T21:39:28.194Z,10.10
2019-03-28T21:41:57.518Z,10.10
2019-03-28T21:44:25.964Z,10.10
2019-03-28T21:46:54.878Z,10.00
2019-03-28T21:49:23.742Z,10.00
2019-03-28T21:51:52.835Z,10.10
2019-03-28T21:54:21.281Z,10.10
2019-03-28T21:56:50.066Z,10.10
2019-03-28T21:59:18.932Z,10.10
2019-03-28T22:01:47.363Z,10.10
2019-03-28T22:04:15.808Z,10.10
2019-03-28T22:06:44.249Z,10.00
2019-03-28T22:09:12.684Z,10.00
2019-03-28T22:11:41.113Z,10.00
2019-03-28T22:14:09.557Z,10.00
2019-03-28T22:16:38.098Z,10.00
2019-03-28T22:19:06.607Z,10.00
2019-03-28T22:21:36.684Z,10.00
2019-03-28T22:24:06.232Z,10.00
2019-03-28T22:26:34.755Z,10.10
2019-03-28T22:29:03.341Z,10.10
2019-03-28T22:31:31.773Z,10.10
2019-03-28T22:34:00.364Z,10.00
2019-03-28T22:36:28.807Z,10.10
2019-03-28T22:38:57.248Z,10.00
2019-03-28T22:41:25.800Z,10.10
2019-03-28T22:43:54.245Z,10.20
2019-03-28T22:46:22.668Z,10.30
2019-03-28T22:48:52.333Z,10.30
2019-03-28T22:51:20.784Z,10.40
2019-03-28T22:53:50.521Z,10.30
2019-03-28T22:56:18.944Z,10.20
2019-03-28T22:58:47.393Z,10.20
2019-03-28T23:01:16.365Z,10.30
2019-03-28T23:03:44.800Z,10.30
2019-03-28T23:06:13.501Z,10.30
2019-03-28T23:08:41.933Z,10.30
2019-03-28T23:11:10.378Z,10.20
2019-03-28T23:13:38.805Z,10.30
2019-03-28T23:16:07.252Z,10.20
2019-03-28T23:18:35.680Z,10.30
2019-03-28T23:21:04.356Z,10.30
2019-03-28T23:23:32.818Z,10.30
2019-03-28T23:26:01.262Z,10.20
2019-03-28T23:28:29.765Z,10.20
2019-03-28T23:31:00.513Z,10.30
2019-03-28T23:33:28.936Z,10.20
2019-03-28T23:35:57.371Z,10.30
2019-03-28T23:38:25.798Z,10.30
2019-03-28T23:40:54.274Z,10.30
2019-03-28T23:43:22.729Z,10.30
2019-03-28T23:45:51.267Z,10.40
2019-03-28T23:48:19.700Z,10.40
2019-03-28T23:50:48.137Z,10.40
2019-03-28T23:53:16.590Z,10.30
2019-03-28T23:55:45.155Z,10.40
2019-03-28T23:58:13.655Z,10.30
